createdAt,value
2018-04-01T00:02:06.639Z,18.03
2018-04-01T00:04:35.118Z,11.20
2018-04-01T00:07:03.003Z,16.80
2018-04-01T00:09:30.898Z,17.33
2018-04-01T00:11:58.991Z,15.33
2018-04-01T00:14:27.067Z,16.40
2018-04-01T00:16:54.975Z,13.20
2018-04-01T00:19:22.990Z,13.73
2018-04-01T00:21:50.908Z,16.53
2018-04-01T00:24:18.791Z,14.73
2018-04-01T00:26:46.670Z,14.53
2018-04-01T00:29:14.548Z,16.43
2018-04-01T00:31:42.766Z,16.47
2018-04-01T00:34:10.776Z,19.20
2018-04-01T00:36:38.651Z,12.30
2018-04-01T00:39:07.778Z,18.07
2018-04-01T00:41:35.661Z,21.30
2018-04-01T00:44:03.741Z,13.67
2018-04-01T00:46:32.523Z,15.30
2018-04-01T00:49:00.575Z,13.30
2018-04-01T00:51:29.144Z,15.70
2018-04-01T00:53:57.307Z,19.10
2018-04-01T00:56:25.184Z,16.63
2018-04-01T00:58:53.166Z,14.87
2018-04-01T01:01:21.043Z,15.13
2018-04-01T01:03:48.955Z,14.20
2018-04-01T01:06:16.909Z,17.37
2018-04-01T01:08:44.790Z,12.73
2018-04-01T01:11:12.670Z,23.57
2018-04-01T01:13:40.578Z,15.50
2018-04-01T01:16:08.512Z,13.60
2018-04-01T01:18:36.469Z,16.00
2018-04-01T01:21:04.568Z,16.07
2018-04-01T01:23:32.687Z,19.90
2018-04-01T01:26:00.572Z,14.80
2018-04-01T01:28:28.471Z,17.53
2018-04-01T01:30:56.793Z,15.83
2018-04-01T01:33:24.801Z,14.37
2018-04-01T01:35:52.765Z,17.53
2018-04-01T01:38:20.647Z,20.20
2018-04-01T01:40:48.525Z,17.33
2018-04-01T01:43:16.461Z,18.90
2018-04-01T01:45:45.017Z,14.30
2018-04-01T01:48:13.160Z,14.57
2018-04-01T01:50:41.563Z,17.23
2018-04-01T01:53:09.715Z,16.40
2018-04-01T01:55:37.831Z,19.60
2018-04-01T01:58:05.715Z,19.07
2018-04-01T02:00:33.610Z,17.03
2018-04-01T02:03:01.705Z,16.70
2018-04-01T02:05:30.151Z,21.63
2018-04-01T02:07:58.191Z,18.60
2018-04-01T02:10:26.040Z,20.30
2018-04-01T02:12:54.011Z,15.97
2018-04-01T02:15:21.904Z,16.93
2018-04-01T02:17:50.855Z,21.80
2018-04-01T02:20:19.027Z,21.90
2018-04-01T02:22:47.066Z,18.73
2018-04-01T02:25:15.930Z,24.17
2018-04-01T02:27:44.503Z,14.57
2018-04-01T02:30:12.577Z,19.87
2018-04-01T02:32:40.849Z,20.07
2018-04-01T02:35:08.733Z,19.77
2018-04-01T02:37:36.613Z,20.57
2018-04-01T02:40:04.748Z,21.57
2018-04-01T02:42:32.646Z,21.67
2018-04-01T02:45:01.342Z,24.20
2018-04-01T02:47:29.378Z,26.37
2018-04-01T02:49:58.205Z,21.97
2018-04-01T02:52:26.108Z,23.23
2018-04-01T02:54:54.820Z,20.73
2018-04-01T02:57:23.292Z,17.50
2018-04-01T02:59:51.791Z,20.10
2018-04-01T03:02:19.856Z,21.37
2018-04-01T03:04:47.751Z,17.77
2018-04-01T03:07:16.114Z,20.37
2018-04-01T03:09:44.442Z,23.23
2018-04-01T03:12:12.984Z,31.80
2018-04-01T03:14:40.919Z,28.77
2018-04-01T03:17:08.929Z,26.40
2018-04-01T03:19:37.270Z,22.30
2018-04-01T03:22:05.625Z,25.40
2018-04-01T03:24:33.893Z,23.73
2018-04-01T03:27:02.620Z,25.30
2018-04-01T03:29:30.936Z,24.87
2018-04-01T03:31:58.950Z,26.83
2018-04-01T03:34:27.710Z,24.93
2018-04-01T03:36:56.058Z,23.40
2018-04-01T03:39:24.177Z,26.77
2018-04-01T03:41:52.796Z,23.27
2018-04-01T03:44:20.907Z,24.00
2018-04-01T03:46:49.148Z,35.67
2018-04-01T03:49:17.292Z,24.27
2018-04-01T03:51:46.364Z,27.43
2018-04-01T03:54:14.782Z,28.03
2018-04-01T03:56:43.313Z,23.87
2018-04-01T03:59:11.584Z,29.50
2018-04-01T04:01:39.770Z,25.73
2018-04-01T04:04:08.568Z,26.27
2018-04-01T04:06:36.608Z,31.43
2018-04-01T04:09:04.668Z,27.63
2018-04-01T04:11:32.694Z,31.47
2018-04-01T04:14:01.212Z,25.67
2018-04-01T04:16:29.211Z,25.13
2018-04-01T04:18:58.016Z,31.13
2018-04-01T04:21:25.901Z,32.63
2018-04-01T04:23:53.792Z,27.83
2018-04-01T04:26:22.558Z,27.47
2018-04-01T04:28:50.510Z,31.37
2018-04-01T04:31:18.399Z,28.67
2018-04-01T04:33:46.427Z,25.03
2018-04-01T04:36:14.417Z,29.90
2018-04-01T04:38:42.295Z,28.37
2018-04-01T04:41:10.327Z,30.23
2018-04-01T04:43:38.295Z,32.97
2018-04-01T04:46:06.317Z,28.93
2018-04-01T04:48:34.311Z,28.70
2018-04-01T04:51:02.228Z,31.10
2018-04-01T04:53:30.962Z,31.50
2018-04-01T04:55:58.951Z,28.73
2018-04-01T04:58:26.898Z,27.43
2018-04-01T05:00:55.297Z,29.17
2018-04-01T05:03:23.239Z,41.30
2018-04-01T05:05:51.121Z,32.00
2018-04-01T05:08:19.071Z,30.13
2018-04-01T05:10:47.325Z,33.30
2018-04-01T05:13:15.303Z,31.17
2018-04-01T05:15:43.188Z,27.77
2018-04-01T05:18:11.075Z,30.87
2018-04-01T05:20:38.967Z,43.87
2018-04-01T05:23:07.231Z,47.97
2018-04-01T05:25:35.192Z,29.53
2018-04-01T05:28:03.164Z,33.13
2018-04-01T05:30:31.065Z,26.00
2018-04-01T05:32:59.348Z,31.57
2018-04-01T05:35:27.281Z,26.70
2018-04-01T05:37:55.165Z,35.33
2018-04-01T05:40:23.097Z,30.70
2018-04-01T05:42:51.744Z,35.83
2018-04-01T05:45:20.089Z,32.57
2018-04-01T05:47:48.128Z,35.03
2018-04-01T05:50:16.015Z,31.10
2018-04-01T05:52:44.737Z,37.00
2018-04-01T05:55:12.773Z,32.13
2018-04-01T05:57:40.804Z,38.10
2018-04-01T06:00:08.912Z,30.27
2018-04-01T06:02:37.227Z,25.83
2018-04-01T06:05:05.294Z,30.93
2018-04-01T06:07:33.565Z,24.37
2018-04-01T06:10:01.460Z,28.87
2018-04-01T06:12:29.396Z,29.53
2018-04-01T06:14:57.313Z,28.27
2018-04-01T06:17:25.229Z,28.20
2018-04-01T06:19:53.120Z,26.17
2018-04-01T06:22:21.052Z,24.73
2018-04-01T06:24:50.493Z,28.60
2018-04-01T06:27:18.666Z,27.23
2018-04-01T06:29:47.076Z,26.33
2018-04-01T06:32:14.962Z,28.83
2018-04-01T06:34:43.129Z,25.57
2018-04-01T06:37:11.365Z,23.93
2018-04-01T06:39:39.863Z,29.97
2018-04-01T06:42:09.299Z,30.23
2018-04-01T06:44:37.910Z,19.67
2018-04-01T06:47:07.226Z,21.10
2018-04-01T06:49:35.121Z,25.87
2018-04-01T06:52:03.829Z,18.43
2018-04-01T06:54:32.660Z,24.93
2018-04-01T06:57:00.973Z,24.77
2018-04-01T06:59:29.024Z,23.90
2018-04-01T07:01:57.467Z,20.17
2018-04-01T07:04:26.604Z,25.20
2018-04-01T07:06:55.473Z,18.43
2018-04-01T07:09:23.980Z,29.77
2018-04-01T07:11:52.712Z,17.77
2018-04-01T07:14:21.333Z,21.73
2018-04-01T07:16:49.571Z,25.23
2018-04-01T07:19:18.113Z,21.00
2018-04-01T07:21:46.328Z,19.47
2018-04-01T07:24:14.274Z,19.53
2018-04-01T07:26:42.854Z,17.13
2018-04-01T07:29:11.231Z,15.70
2018-04-01T07:31:39.628Z,17.80
2018-04-01T07:34:07.650Z,17.80
2018-04-01T07:36:35.547Z,18.93
2018-04-01T07:39:04.152Z,19.20
2018-04-01T07:41:32.046Z,49.73
2018-04-01T07:44:00.260Z,23.17
2018-04-01T07:46:28.232Z,28.80
2018-04-01T07:48:56.301Z,23.93
2018-04-01T07:51:24.276Z,22.90
2018-04-01T07:53:52.169Z,26.70
2018-04-01T07:56:20.545Z,22.63
2018-04-01T07:58:48.874Z,24.10
2018-04-01T08:01:17.122Z,27.67
2018-04-01T08:03:45.012Z,24.57
2018-04-01T08:06:13.100Z,24.90
2018-04-01T08:08:41.897Z,22.03
2018-04-01T08:11:09.924Z,22.90
2018-04-01T08:13:39.001Z,26.43
2018-04-01T08:16:07.305Z,21.30
2018-04-01T08:18:36.258Z,27.07
2018-04-01T08:21:04.735Z,26.17
2018-04-01T08:23:33.428Z,28.20
2018-04-01T08:26:01.616Z,27.83
2018-04-01T08:28:29.818Z,31.50
2018-04-01T08:30:58.524Z,26.87
2018-04-01T08:33:28.809Z,22.47
2018-04-01T08:35:56.706Z,24.73
2018-04-01T08:38:24.870Z,29.17
2018-04-01T08:40:52.758Z,25.07
2018-04-01T08:43:20.644Z,27.80
2018-04-01T08:45:49.217Z,26.63
2018-04-01T08:48:17.572Z,26.23
2018-04-01T08:50:45.895Z,22.60
2018-04-01T08:53:14.761Z,30.60
2018-04-01T08:55:42.782Z,33.33
2018-04-01T08:58:10.884Z,45.27
2018-04-01T09:00:38.780Z,30.33
2018-04-01T09:03:06.676Z,26.53
2018-04-01T09:05:34.797Z,22.63
2018-04-01T09:08:03.763Z,20.77
2018-04-01T09:10:33.398Z,24.57
2018-04-01T09:13:01.753Z,26.03
2018-04-01T09:15:29.873Z,25.70
2018-04-01T09:17:58.450Z,21.23
2018-04-01T09:20:26.525Z,20.27
2018-04-01T09:22:54.482Z,18.73
2018-04-01T09:25:22.398Z,29.37
2018-04-01T09:27:50.308Z,21.63
2018-04-01T09:30:18.613Z,40.73
2018-04-01T09:32:47.405Z,24.93
2018-04-01T09:35:16.080Z,21.30
2018-04-01T09:37:45.376Z,24.50
2018-04-01T09:40:14.264Z,25.67
2018-04-01T09:42:42.481Z,22.77
2018-04-01T09:45:10.988Z,27.47
2018-04-01T09:47:38.985Z,19.73
2018-04-01T09:50:06.906Z,20.77
2018-04-01T09:52:34.798Z,21.33
2018-04-01T09:55:03.046Z,19.47
2018-04-01T09:57:30.938Z,21.07
2018-04-01T09:59:58.837Z,22.23
2018-04-01T10:02:27.394Z,20.83
2018-04-01T10:05:19.607Z,21.73
2018-04-01T10:07:48.992Z,21.23
2018-04-01T10:10:17.933Z,19.93
2018-04-01T10:12:46.357Z,16.73
2018-04-01T10:15:14.778Z,19.17
2018-04-01T10:17:43.443Z,23.20
2018-04-01T10:20:12.076Z,16.50
2018-04-01T10:22:41.395Z,16.37
2018-04-01T10:25:10.016Z,14.50
2018-04-01T10:27:38.444Z,16.83
2018-04-01T10:30:06.981Z,75.17
2018-04-01T10:32:35.478Z,21.30
2018-04-01T10:35:04.785Z,22.63
2018-04-01T10:37:33.309Z,18.77
2018-04-01T10:40:01.728Z,14.70
2018-04-01T10:42:30.370Z,14.90
2018-04-01T10:44:59.014Z,19.37
2018-04-01T10:47:27.443Z,14.87
2018-04-01T10:49:55.882Z,13.43
2018-04-01T10:52:24.557Z,13.33
2018-04-01T10:54:52.449Z,12.07
2018-04-01T10:57:21.039Z,15.17
2018-04-01T10:59:50.164Z,11.60
2018-04-01T11:02:18.343Z,13.17
2018-04-01T11:04:46.233Z,13.60
2018-04-01T11:07:14.818Z,15.97
2018-04-01T11:09:42.915Z,10.50
2018-04-01T11:12:11.359Z,15.97
2018-04-01T11:14:39.519Z,19.47
2018-04-01T11:17:07.566Z,13.67
2018-04-01T11:19:36.023Z,12.00
2018-04-01T11:22:04.165Z,15.23
2018-04-01T11:24:33.286Z,13.00
2018-04-01T11:27:02.115Z,17.10
2018-04-01T11:29:30.021Z,21.37
2018-04-01T11:31:57.914Z,10.37
2018-04-01T11:34:25.802Z,19.27
2018-04-01T11:36:53.698Z,16.40
2018-04-01T11:39:21.674Z,11.47
2018-04-01T11:41:49.578Z,14.57
2018-04-01T11:44:17.467Z,15.27
2018-04-01T11:46:45.356Z,9.80
2018-04-01T11:49:13.243Z,12.27
2018-04-01T11:51:41.127Z,11.03
2018-04-01T11:54:09.009Z,16.83
2018-04-01T11:56:36.906Z,18.50
2018-04-01T11:59:04.818Z,11.97
2018-04-01T12:01:32.791Z,9.77
2018-04-01T12:04:00.692Z,8.00
2018-04-01T12:06:28.655Z,13.27
2018-04-01T12:08:56.572Z,14.20
2018-04-01T12:11:24.470Z,11.73
2018-04-01T12:13:52.381Z,26.10
2018-04-01T12:16:20.290Z,13.43
2018-04-01T12:18:48.204Z,12.17
2018-04-01T12:21:16.106Z,4.83
2018-04-01T12:23:43.991Z,5.43
2018-04-01T12:26:12.062Z,8.43
2018-04-01T12:28:40.030Z,7.00
2018-04-01T12:31:08.255Z,7.93
2018-04-01T12:33:36.156Z,7.90
2018-04-01T12:36:04.247Z,7.37
2018-04-01T12:38:32.126Z,4.80
2018-04-01T12:41:00.072Z,4.47
2018-04-01T12:43:27.962Z,7.03
2018-04-01T12:45:55.853Z,6.23
2018-04-01T12:48:23.741Z,32.93
2018-04-01T12:50:51.640Z,21.70
2018-04-01T12:53:19.535Z,6.70
2018-04-01T12:55:47.426Z,6.17
2018-04-01T12:58:15.349Z,5.77
2018-04-01T13:00:43.230Z,9.63
2018-04-01T13:03:11.117Z,6.53
2018-04-01T13:05:39.010Z,6.23
2018-04-01T13:08:06.888Z,4.57
2018-04-01T13:10:34.778Z,6.67
2018-04-01T13:13:02.665Z,7.17
2018-04-01T13:15:30.564Z,7.07
2018-04-01T13:17:58.463Z,5.97
2018-04-01T13:20:26.356Z,7.63
2018-04-01T13:22:54.257Z,9.83
2018-04-01T13:25:22.147Z,9.80
2018-04-01T13:27:50.024Z,13.27
2018-04-01T13:30:17.903Z,15.00
2018-04-01T13:32:45.878Z,10.43
2018-04-01T13:35:13.828Z,9.50
2018-04-01T13:37:41.711Z,11.33
2018-04-01T13:40:09.695Z,43.63
2018-04-01T13:42:37.604Z,19.60
2018-04-01T13:45:05.497Z,10.97
2018-04-01T13:47:33.379Z,13.20
2018-04-01T13:50:01.268Z,11.27
2018-04-01T13:52:29.204Z,15.67
2018-04-01T13:54:57.146Z,15.97
2018-04-01T13:57:25.039Z,11.57
2018-04-01T13:59:52.923Z,11.77
2018-04-01T14:02:20.820Z,11.60
2018-04-01T14:04:48.744Z,12.03
2018-04-01T14:07:16.626Z,14.67
2018-04-01T14:09:44.705Z,13.83
2018-04-01T14:12:12.592Z,13.83
2018-04-01T14:14:40.509Z,16.90
2018-04-01T14:17:11.684Z,21.50
2018-04-01T14:19:39.590Z,18.07
2018-04-01T14:22:07.560Z,14.50
2018-04-01T14:24:35.444Z,11.10
2018-04-01T14:27:03.339Z,13.73
2018-04-01T14:29:31.231Z,11.53
2018-04-01T14:31:59.106Z,10.37
2018-04-01T14:34:26.988Z,10.23
2018-04-01T14:36:54.883Z,8.50
2018-04-01T14:39:22.761Z,16.40
2018-04-01T14:41:50.645Z,11.23
2018-04-01T14:44:18.620Z,15.10
2018-04-01T14:46:46.545Z,18.03
2018-04-01T14:49:14.457Z,22.53
2018-04-01T14:51:42.381Z,14.40
2018-04-01T14:54:10.353Z,10.20
2018-04-01T14:56:38.297Z,15.30
2018-04-01T14:59:06.202Z,12.10
2018-04-01T15:01:34.092Z,15.20
2018-04-01T15:04:02.042Z,15.00
2018-04-01T15:06:29.926Z,11.70
2018-04-01T15:08:57.827Z,10.60
2018-04-01T15:11:25.722Z,10.60
2018-04-01T15:13:54.789Z,17.60
2018-04-01T15:16:22.684Z,13.67
2018-04-01T15:18:50.560Z,10.43
2018-04-01T15:21:18.449Z,10.07
2018-04-01T15:23:46.330Z,7.40
2018-04-01T15:26:14.216Z,5.87
2018-04-01T15:28:42.642Z,12.87
2018-04-01T15:31:11.415Z,44.97
2018-04-01T15:33:39.292Z,7.57
2018-04-01T15:36:07.177Z,4.93
2018-04-01T15:38:35.057Z,4.57
2018-04-01T15:41:02.933Z,5.07
2018-04-01T15:43:31.396Z,5.77
2018-04-01T15:45:59.336Z,8.47
2018-04-01T15:48:27.226Z,9.90
2018-04-01T15:50:55.149Z,5.47
2018-04-01T15:53:23.033Z,6.87
2018-04-01T15:55:50.930Z,6.20
2018-04-01T15:58:18.831Z,6.63
2018-04-01T16:00:46.723Z,6.57
2018-04-01T16:03:14.610Z,7.30
2018-04-01T16:05:42.501Z,5.77
2018-04-01T16:08:10.476Z,4.77
2018-04-01T16:10:38.552Z,4.23
2018-04-01T16:13:07.157Z,4.00
2018-04-01T16:15:35.203Z,5.33
2018-04-01T16:18:03.174Z,4.57
2018-04-01T16:20:31.055Z,6.23
2018-04-01T16:22:58.935Z,8.17
2018-04-01T16:25:26.838Z,6.57
2018-04-01T16:27:54.769Z,4.67
2018-04-01T16:30:22.659Z,4.80
2018-04-01T16:32:50.542Z,6.00
2018-04-01T16:35:18.423Z,8.77
2018-04-01T16:37:46.302Z,7.87
2018-04-01T16:40:14.190Z,7.77
2018-04-01T16:42:42.080Z,7.90
2018-04-01T16:45:09.960Z,9.40
2018-04-01T16:47:37.898Z,9.70
2018-04-01T16:50:05.809Z,7.43
2018-04-01T16:52:33.838Z,6.53
2018-04-01T16:55:01.742Z,6.70
2018-04-01T16:57:29.634Z,5.87
2018-04-01T16:59:57.544Z,5.73
2018-04-01T17:02:25.431Z,7.80
2018-04-01T17:04:53.325Z,10.00
2018-04-01T17:07:21.271Z,11.97
2018-04-01T17:09:49.158Z,9.13
2018-04-01T17:12:17.056Z,10.33
2018-04-01T17:14:45.752Z,8.50
2018-04-01T17:17:13.641Z,6.63
2018-04-01T17:19:41.533Z,10.13
2018-04-01T17:22:09.442Z,10.80
2018-04-01T17:24:37.632Z,6.83
2018-04-01T17:27:05.528Z,5.13
2018-04-01T17:29:33.412Z,6.30
2018-04-01T17:32:01.288Z,7.40
2018-04-01T17:34:29.185Z,4.47
2018-04-01T17:36:57.079Z,4.00
2018-04-01T17:39:25.003Z,5.67
2018-04-01T17:41:52.891Z,5.87
2018-04-01T17:44:20.793Z,2.80
2018-04-01T17:46:48.686Z,4.00
2018-04-01T17:49:16.653Z,3.10
2018-04-01T17:51:44.540Z,2.93
2018-04-01T17:54:12.446Z,2.90
2018-04-01T17:56:41.132Z,4.67
2018-04-01T17:59:09.029Z,4.67
2018-04-01T18:01:36.926Z,2.97
2018-04-01T18:04:04.932Z,3.53
2018-04-01T18:06:32.894Z,2.87
2018-04-01T18:09:00.786Z,3.63
2018-04-01T18:11:28.684Z,9.23
2018-04-01T18:13:56.581Z,8.87
2018-04-01T18:16:25.311Z,3.80
2018-04-01T18:18:53.199Z,5.67
2018-04-01T18:21:21.171Z,5.80
2018-04-01T18:23:49.032Z,5.93
2018-04-01T18:26:16.915Z,2.87
2018-04-01T18:28:44.806Z,8.70
2018-04-01T18:31:12.690Z,3.60
2018-04-01T18:33:40.681Z,3.73
2018-04-01T18:36:08.582Z,2.93
2018-04-01T18:38:36.462Z,2.97
2018-04-01T18:41:04.353Z,4.00
2018-04-01T18:43:32.276Z,4.90
2018-04-01T18:46:00.164Z,5.37
2018-04-01T18:48:28.088Z,3.53
2018-04-01T18:50:56.116Z,4.03
2018-04-01T18:53:23.976Z,1.90
2018-04-01T18:55:51.858Z,2.67
2018-04-01T18:58:19.776Z,5.10
2018-04-01T19:00:47.658Z,4.53
2018-04-01T19:03:15.560Z,2.73
2018-04-01T19:05:43.450Z,2.77
2018-04-01T19:08:11.421Z,3.40
2018-04-01T19:10:39.303Z,4.57
2018-04-01T19:13:07.185Z,2.30
2018-04-01T19:15:35.071Z,8.00
2018-04-01T19:18:03.508Z,2.50
2018-04-01T19:20:31.929Z,3.03
2018-04-01T19:23:00.367Z,3.60
2018-04-01T19:25:28.787Z,2.93
2018-04-01T19:27:57.229Z,4.27
2018-04-01T19:30:25.704Z,4.67
2018-04-01T19:32:54.127Z,3.37
2018-04-01T19:35:22.565Z,4.17
2018-04-01T19:37:51.830Z,5.13
2018-04-01T19:40:20.312Z,3.50
2018-04-01T19:42:48.729Z,6.37
2018-04-01T19:45:17.143Z,6.30
2018-04-01T19:47:45.610Z,4.13
2018-04-01T19:50:14.029Z,6.23
2018-04-01T19:52:42.520Z,7.70
2018-04-01T19:55:11.001Z,3.43
2018-04-01T19:57:39.425Z,5.87
2018-04-01T20:00:07.857Z,3.73
2018-04-01T20:02:36.292Z,4.63
2018-04-01T20:05:04.720Z,5.67
2018-04-01T20:07:33.162Z,3.40
2018-04-01T20:10:01.588Z,4.33
2018-04-01T20:12:30.070Z,6.17
2018-04-01T20:14:58.500Z,4.47
2018-04-01T20:17:26.924Z,2.63
2018-04-01T20:19:55.366Z,4.07
2018-04-01T20:22:23.830Z,3.53
2018-04-01T20:24:52.261Z,3.67
2018-04-01T20:27:21.159Z,4.93
2018-04-01T20:29:49.657Z,4.63
2018-04-01T20:32:18.092Z,5.87
2018-04-01T20:34:46.507Z,4.43
2018-04-01T20:37:14.978Z,5.53
2018-04-01T20:39:43.582Z,5.30
2018-04-01T20:42:12.030Z,5.53
2018-04-01T20:44:40.464Z,2.83
2018-04-01T20:47:08.880Z,3.20
2018-04-01T20:49:37.299Z,4.60
2018-04-01T20:52:05.750Z,1.87
2018-04-01T20:54:34.225Z,3.60
2018-04-01T20:57:02.653Z,4.47
2018-04-01T20:59:31.105Z,3.70
2018-04-01T21:01:59.541Z,3.17
2018-04-01T21:04:28.331Z,2.80
2018-04-01T21:06:56.795Z,5.03
2018-04-01T21:09:25.226Z,4.17
2018-04-01T21:11:53.672Z,2.80
2018-04-01T21:14:22.080Z,3.50
2018-04-01T21:16:50.721Z,2.20
2018-04-01T21:19:19.141Z,2.23
2018-04-01T21:21:47.562Z,2.50
2018-04-01T21:24:15.980Z,3.93
2018-04-01T21:26:44.436Z,2.47
2018-04-01T21:29:12.851Z,2.83
2018-04-01T21:31:41.267Z,2.67
2018-04-01T21:34:09.699Z,3.33
2018-04-01T21:36:38.126Z,3.10
2018-04-01T21:39:06.564Z,3.37
2018-04-01T21:41:35.003Z,3.77
2018-04-01T21:44:03.449Z,2.60
2018-04-01T21:46:31.869Z,4.40
2018-04-01T21:49:00.331Z,4.27
2018-04-01T21:54:03.364Z,4.80
2018-04-01T21:56:31.864Z,3.50
2018-04-01T21:59:00.330Z,3.23
2018-04-01T22:01:28.724Z,3.23
2018-04-01T22:03:57.149Z,4.40
2018-04-01T22:06:25.565Z,4.70
2018-04-01T22:08:53.992Z,5.10
2018-04-01T22:11:22.430Z,2.47
2018-04-01T22:13:50.852Z,4.63
2018-04-01T22:16:19.293Z,4.60
2018-04-01T22:18:47.715Z,3.27
2018-04-01T22:21:16.143Z,5.53
2018-04-01T22:23:44.564Z,3.73
2018-04-01T22:26:12.996Z,5.33
2018-04-01T22:28:41.427Z,3.27
2018-04-01T22:31:09.855Z,4.63
2018-04-01T22:33:38.276Z,6.70
2018-04-01T22:36:06.705Z,6.30
2018-04-01T22:38:35.130Z,4.80
2018-04-01T22:41:03.581Z,6.20
2018-04-01T22:43:32.014Z,5.67
2018-04-01T22:46:00.455Z,6.47
2018-04-01T22:48:28.875Z,6.17
2018-04-01T22:50:57.310Z,3.50
2018-04-01T22:53:25.739Z,4.90
2018-04-01T22:55:54.210Z,4.50
2018-04-01T22:58:22.732Z,4.40
2018-04-01T23:00:51.145Z,2.83
2018-04-01T23:03:20.055Z,3.53
2018-04-01T23:05:48.476Z,2.40
2018-04-01T23:08:16.918Z,5.00
2018-04-01T23:10:45.336Z,3.87
2018-04-01T23:13:14.618Z,3.43
2018-04-01T23:15:43.028Z,3.20
2018-04-01T23:18:11.447Z,5.10
2018-04-01T23:20:39.911Z,5.73
2018-04-01T23:23:08.333Z,2.17
2018-04-01T23:25:36.743Z,3.67
2018-04-01T23:28:05.156Z,4.40
2018-04-01T23:30:33.647Z,3.40
2018-04-01T23:33:02.065Z,2.73
2018-04-01T23:35:30.485Z,2.53
2018-04-01T23:37:58.904Z,1.63
2018-04-01T23:40:27.308Z,1.53
2018-04-01T23:42:56.356Z,1.70
2018-04-01T23:45:24.797Z,3.20
2018-04-01T23:47:53.291Z,2.00
2018-04-01T23:50:21.704Z,2.20
2018-04-01T23:52:50.124Z,1.47
2018-04-01T23:55:18.536Z,1.73
2018-04-01T23:57:46.950Z,3.67
